Time;durP1;ratioP1;P1;durP2;ratioP2;P2;SDS_P1;SDS_P2;PMS_P1;PMS_P2;Temp;Humidity;BMP_temperature;BMP_pressure;BME280_temperature;BME280_humidity;BME280_pressure;Samples;Min_cycle;Max_cycle;Signal;HPM_P1;HPM_P2
2023/01/05 00:01:46;;;;;;;38.80;5.82;;;9.90;99.90;;;;;;4949806;28;20055;-82
2023/01/05 00:04:12;;;;;;;29.45;5.20;;;9.90;99.90;;;;;;4947841;28;20046;-82
2023/01/05 00:06:38;;;;;;;35.70;5.82;;;9.90;99.90;;;;;;4931657;28;20050;-82
2023/01/05 00:09:09;;;;;;;35.60;5.68;;;9.90;99.90;;;;;;4965059;28;20043;-83
2023/01/05 00:22:53;;;;;;;26.20;5.55;;;9.80;99.90;;;;;;4973629;28;20477;-82
2023/01/05 00:25:21;;;;;;;40.08;7.00;;;9.80;99.90;;;;;;4976503;28;20043;-82
2023/01/05 00:27:50;;;;;;;30.98;6.20;;;9.80;99.90;;;;;;4954588;28;20038;-82
2023/01/05 00:30:19;;;;;;;35.47;6.35;;;9.80;99.90;;;;;;4949165;28;20492;-82
2023/01/05 00:32:45;;;;;;;39.30;5.60;;;9.80;99.90;;;;;;4986055;28;20034;-82
2023/01/05 00:35:13;;;;;;;39.45;6.32;;;9.80;99.90;;;;;;4952786;28;20050;-80
2023/01/05 00:37:39;;;;;;;35.75;6.25;;;9.80;99.90;;;;;;4966303;28;20049;-82
2023/01/05 00:40:10;;;;;;;36.15;5.28;;;9.80;99.90;;;;;;4949356;28;20495;-82
2023/01/05 00:42:36;;;;;;;39.55;7.72;;;9.90;99.90;;;;;;4949939;28;20045;-82
2023/01/05 00:45:02;;;;;;;30.00;5.25;;;9.80;99.90;;;;;;4951013;28;20047;-82
2023/01/05 00:47:31;;;;;;;27.70;5.18;;;9.80;99.90;;;;;;4931185;28;20129;-79
2023/01/05 00:49:56;;;;;;;35.10;5.18;;;9.90;99.90;;;;;;4969592;28;20039;-79
2023/01/05 00:52:25;;;;;;;30.60;5.30;;;9.90;99.90;;;;;;4965039;28;20446;-83
2023/01/05 00:54:53;;;;;;;36.55;6.38;;;9.90;99.90;;;;;;4955580;28;20030;-82
2023/01/05 00:57:25;;;;;;;27.67;4.85;;;9.90;99.90;;;;;;4965420;28;20039;-83
2023/01/05 00:59:51;;;;;;;22.15;4.57;;;10.00;99.90;;;;;;4968399;28;20567;-81
2023/01/05 01:02:16;;;;;;;26.23;5.18;;;10.00;99.90;;;;;;4951194;28;20070;-82
2023/01/05 01:04:42;;;;;;;34.67;5.75;;;10.00;99.90;;;;;;4948762;28;20104;-82
2023/01/05 01:07:08;;;;;;;24.20;5.00;;;10.00;99.90;;;;;;4960183;28;20051;-82
2023/01/05 01:09:34;;;;;;;28.38;4.20;;;10.00;99.90;;;;;;4962436;28;20125;-81
2023/01/05 01:12:00;;;;;;;31.08;5.38;;;10.10;99.90;;;;;;4956341;28;20062;-82
2023/01/05 01:14:28;;;;;;;22.40;4.03;;;10.10;99.90;;;;;;4961792;28;20046;-80
2023/01/05 01:16:57;;;;;;;22.88;4.57;;;10.10;99.90;;;;;;4931892;28;20047;-80
2023/01/05 01:19:25;;;;;;;22.20;4.38;;;10.20;99.90;;;;;;4929526;28;20045;-81
2023/01/05 01:21:53;;;;;;;27.33;5.88;;;10.10;99.90;;;;;;4950771;28;20769;-81
2023/01/05 01:24:26;;;;;;;22.65;4.05;;;10.10;99.90;;;;;;4948677;28;20049;-80
2023/01/05 01:26:55;;;;;;;33.35;5.65;;;10.10;99.90;;;;;;4966134;28;20038;-81
2023/01/05 01:29:22;;;;;;;27.25;5.32;;;10.10;99.90;;;;;;4947148;28;20045;-80
2023/01/05 01:31:49;;;;;;;23.05;5.15;;;10.10;99.90;;;;;;4952014;28;20046;-82
2023/01/05 01:34:15;;;;;;;24.15;4.60;;;10.20;99.90;;;;;;4968087;28;20102;-82
2023/01/05 01:36:42;;;;;;;25.50;4.10;;;10.20;99.90;;;;;;4972317;28;20038;-81
2023/01/05 01:39:07;;;;;;;25.45;4.57;;;10.20;99.90;;;;;;4972519;28;20039;-81
2023/01/05 01:41:33;;;;;;;20.75;5.00;;;10.30;99.90;;;;;;4936289;28;20594;-80
2023/01/05 01:43:59;;;;;;;25.05;5.15;;;10.30;99.90;;;;;;4951748;28;20047;-81
2023/01/05 01:46:28;;;;;;;31.65;5.28;;;10.20;99.90;;;;;;4952575;28;20039;-81
2023/01/05 01:49:01;;;;;;;30.08;5.30;;;10.20;99.90;;;;;;4957973;28;20076;-80
2023/01/05 01:51:34;;;;;;;32.53;6.38;;;10.20;99.90;;;;;;4972529;28;20134;-80
2023/01/05 01:54:05;;;;;;;30.48;5.38;;;10.20;99.90;;;;;;4970571;28;20031;-81
2023/01/05 01:56:38;;;;;;;28.63;6.00;;;10.20;99.90;;;;;;4955003;28;20548;-81
2023/01/05 01:59:05;;;;;;;29.23;5.63;;;10.10;99.90;;;;;;4972970;28;20046;-80
2023/01/05 02:01:31;;;;;;;28.58;5.80;;;10.00;99.90;;;;;;4985162;28;20047;-81
2023/01/05 02:03:58;;;;;;;23.40;5.00;;;10.00;99.90;;;;;;4952919;28;20126;-80
2023/01/05 02:06:27;;;;;;;32.53;5.55;;;10.00;99.90;;;;;;4948101;28;20050;-80
2023/01/05 02:08:53;;;;;;;29.50;5.35;;;10.00;99.90;;;;;;4951136;28;20039;-82
2023/01/05 02:11:47;;;;;;;30.23;5.40;;;10.00;99.90;;;;;;4974283;28;20049;-81
2023/01/05 02:14:37;;;;;;;26.80;4.93;;;10.00;99.90;;;;;;4971660;28;20039;-81
2023/01/05 02:17:24;;;;;;;25.05;4.85;;;10.00;99.90;;;;;;4969610;28;20117;-82
2023/01/05 02:19:56;;;;;;;28.05;4.95;;;10.00;99.90;;;;;;4952830;28;20050;-81
2023/01/05 02:22:54;;;;;;;28.98;4.53;;;10.00;99.90;;;;;;4967616;28;20035;-81
2023/01/05 02:25:32;;;;;;;21.98;5.05;;;10.00;99.90;;;;;;4966983;28;20057;-81
2023/01/05 02:28:36;;;;;;;25.30;6.22;;;10.00;99.90;;;;;;4962392;28;20035;-81
2023/01/05 02:31:18;;;;;;;24.33;4.88;;;9.90;99.90;;;;;;4912744;29;20071;-80
2023/01/05 02:34:06;;;;;;;28.98;5.20;;;10.00;99.90;;;;;;4950761;28;20504;-81
2023/01/05 02:36:49;;;;;;;21.92;4.40;;;9.90;99.90;;;;;;4987852;28;20039;-82
2023/01/05 02:39:40;;;;;;;26.73;4.97;;;9.90;99.90;;;;;;4974764;28;20065;-82
2023/01/05 02:42:12;;;;;;;31.65;5.28;;;9.90;99.90;;;;;;4948273;28;20134;-82
2023/01/05 02:44:38;;;;;;;28.58;4.68;;;9.90;99.90;;;;;;4970621;28;20043;-80
2023/01/05 02:47:28;;;;;;;37.40;7.32;;;9.90;99.90;;;;;;4955892;28;20089;-82
2023/01/05 02:49:59;;;;;;;23.23;4.35;;;9.90;99.90;;;;;;4969529;28;20039;-81
2023/01/05 02:52:29;;;;;;;31.85;5.18;;;9.80;99.90;;;;;;4972744;28;20043;-81
2023/01/05 02:55:02;;;;;;;32.88;5.40;;;9.80;99.90;;;;;;4962115;28;20098;-82
2023/01/05 02:57:51;;;;;;;33.43;6.07;;;9.80;99.90;;;;;;4972938;28;20632;-81
2023/01/05 03:00:49;;;;;;;29.63;4.60;;;9.80;99.90;;;;;;4975202;28;20455;-84
2023/01/05 03:03:21;;;;;;;23.63;4.55;;;9.90;99.90;;;;;;4941516;28;20055;-82
2023/01/05 03:05:54;;;;;;;26.98;5.65;;;9.90;99.90;;;;;;4974879;28;20121;-79
2023/01/05 03:08:22;;;;;;;27.15;4.85;;;9.80;99.90;;;;;;4968211;28;20038;-82
2023/01/05 03:14:14;;;;;;;37.83;6.13;;;9.80;99.90;;;;;;4972098;28;20058;-81
2023/01/05 03:16:40;;;;;;;32.17;5.22;;;9.80;99.90;;;;;;4953769;28;20057;-80
2023/01/05 03:36:00;;;;;;;24.48;4.82;;;9.90;99.90;;;;;;4977010;28;20363;-80
2023/01/05 03:38:34;;;;;;;26.60;5.45;;;9.90;99.90;;;;;;4970435;28;20035;-80
2023/01/05 03:41:08;;;;;;;25.70;6.63;;;9.90;99.90;;;;;;4973964;28;20034;-81
2023/01/05 03:43:38;;;;;;;35.28;7.28;;;10.00;99.90;;;;;;4966530;28;20463;-81
2023/01/05 03:46:18;;;;;;;30.15;4.82;;;10.00;99.90;;;;;;4956315;28;20062;-81
2023/01/05 03:48:43;;;;;;;24.48;4.57;;;10.00;99.90;;;;;;4967078;28;20184;-81
2023/01/05 03:51:09;;;;;;;27.50;5.03;;;9.90;99.90;;;;;;4954926;28;20070;-81
2023/01/05 03:53:35;;;;;;;33.13;5.65;;;9.90;99.90;;;;;;4951617;28;20177;-81
2023/01/05 03:56:01;;;;;;;30.58;6.05;;;10.00;99.90;;;;;;4925448;28;20038;-80
2023/01/05 03:58:26;;;;;;;18.40;4.50;;;9.90;99.90;;;;;;4940890;28;20043;-79
2023/01/05 04:00:52;;;;;;;19.95;5.07;;;9.90;99.90;;;;;;4972775;28;20043;-80
2023/01/05 04:03:18;;;;;;;28.33;4.93;;;10.00;99.90;;;;;;4954164;28;20499;-82
2023/01/05 04:05:43;;;;;;;30.70;5.60;;;9.90;99.90;;;;;;4947924;28;20038;-81
2023/01/05 04:08:09;;;;;;;27.20;6.20;;;10.00;99.90;;;;;;4927748;28;20054;-81
2023/01/05 04:10:35;;;;;;;31.23;4.20;;;10.00;99.90;;;;;;4939419;28;20051;-80
2023/01/05 04:13:00;;;;;;;26.90;5.43;;;10.00;99.90;;;;;;4947525;28;20047;-82
2023/01/05 04:15:26;;;;;;;27.30;6.70;;;10.00;99.90;;;;;;4933793;28;20050;-80
2023/01/05 04:17:54;;;;;;;31.70;4.82;;;10.00;99.90;;;;;;4948027;28;20112;-79
2023/01/05 04:20:23;;;;;;;22.98;4.90;;;10.00;99.90;;;;;;4952917;28;20039;-81
2023/01/05 04:22:49;;;;;;;21.02;4.18;;;10.00;99.90;;;;;;4955346;28;20113;-82
2023/01/05 04:25:14;;;;;;;28.10;4.45;;;10.00;99.90;;;;;;4949453;28;20085;-81
2023/01/05 04:27:40;;;;;;;21.35;4.40;;;9.90;99.90;;;;;;4936211;28;20065;-81
2023/01/05 04:30:09;;;;;;;23.58;4.45;;;9.90;99.90;;;;;;4949783;28;20046;-80
2023/01/05 04:32:35;;;;;;;29.23;4.82;;;9.90;99.90;;;;;;4924424;28;20039;-80
2023/01/05 04:35:00;;;;;;;23.33;5.22;;;10.00;99.90;;;;;;4952590;28;20093;-81
2023/01/05 04:37:26;;;;;;;25.35;5.18;;;9.90;99.90;;;;;;4960664;28;20490;-82
2023/01/05 04:39:52;;;;;;;28.20;4.50;;;10.00;99.90;;;;;;4956897;28;20047;-81
2023/01/05 04:42:18;;;;;;;25.90;5.43;;;10.00;99.90;;;;;;4960200;28;20106;-80
2023/01/05 04:44:43;;;;;;;23.52;4.85;;;10.00;99.90;;;;;;4939155;28;20101;-81
2023/01/05 04:47:09;;;;;;;28.33;4.97;;;10.00;99.90;;;;;;4940051;28;20047;-79
2023/01/05 04:49:35;;;;;;;31.55;5.43;;;10.00;99.90;;;;;;4957662;28;20035;-81
2023/01/05 04:52:00;;;;;;;30.40;5.75;;;10.00;99.90;;;;;;4940342;28;20046;-80
2023/01/05 04:54:26;;;;;;;20.52;4.90;;;10.10;99.90;;;;;;4971136;28;20047;-80
2023/01/05 04:56:52;;;;;;;28.05;4.68;;;10.10;99.90;;;;;;4940724;28;20047;-81
2023/01/05 04:59:20;;;;;;;29.58;5.30;;;10.10;99.90;;;;;;4961369;28;20045;-82
2023/01/05 05:01:46;;;;;;;30.38;7.03;;;10.10;99.90;;;;;;4942164;28;20049;-79
2023/01/05 05:04:12;;;;;;;29.15;5.88;;;10.10;99.90;;;;;;4972905;23;20042;-61
2023/01/05 05:06:40;;;;;;;24.08;4.53;;;10.10;99.90;;;;;;4991750;28;20076;-62
2023/01/05 05:09:06;;;;;;;24.60;4.65;;;10.10;99.90;;;;;;4980238;28;20496;-63
2023/01/05 05:11:32;;;;;;;30.73;5.35;;;10.10;99.90;;;;;;4985735;28;20065;-62
2023/01/05 05:13:57;;;;;;;26.10;4.22;;;10.10;99.90;;;;;;4993822;28;20068;-64
2023/01/05 05:16:26;;;;;;;23.33;4.28;;;10.10;99.90;;;;;;4992878;28;20046;-62
2023/01/05 05:18:52;;;;;;;23.73;4.80;;;10.10;99.90;;;;;;4998065;28;20060;-63
2023/01/05 05:21:17;;;;;;;27.52;4.72;;;10.10;99.90;;;;;;4993745;28;20075;-63
2023/01/05 05:23:43;;;;;;;25.98;4.75;;;10.10;99.90;;;;;;4998967;28;20485;-62
2023/01/05 05:26:09;;;;;;;27.52;5.35;;;10.10;99.90;;;;;;4997169;28;20095;-63
2023/01/05 05:28:43;;;;;;;26.58;5.82;;;10.10;99.90;;;;;;4964331;28;20042;-64
2023/01/05 05:31:09;;;;;;;26.40;5.25;;;10.10;99.90;;;;;;5011171;28;20373;-63
2023/01/05 05:33:36;;;;;;;23.45;4.60;;;10.10;99.90;;;;;;4968445;28;20125;-63
2023/01/05 05:36:04;;;;;;;27.80;5.22;;;10.10;99.90;;;;;;4980365;28;20045;-63
2023/01/05 05:38:29;;;;;;;19.95;5.15;;;10.10;99.90;;;;;;4991068;28;20068;-62
2023/01/05 05:41:01;;;;;;;25.30;4.70;;;10.10;99.90;;;;;;4980527;28;22225;-63
2023/01/05 05:43:27;;;;;;;20.65;4.57;;;10.10;99.90;;;;;;4983093;28;20042;-63
2023/01/05 05:45:52;;;;;;;26.75;4.90;;;10.10;99.90;;;;;;4981687;28;20131;-62
2023/01/05 05:48:18;;;;;;;28.02;5.35;;;10.10;99.90;;;;;;4997275;28;20038;-61
2023/01/05 05:50:44;;;;;;;29.00;5.25;;;10.10;99.90;;;;;;4992350;28;20465;-62
2023/01/05 05:53:10;;;;;;;32.38;4.93;;;10.10;99.90;;;;;;4978534;28;20129;-62
2023/01/05 05:55:36;;;;;;;28.00;4.47;;;10.10;99.90;;;;;;4980129;28;20144;-63
2023/01/05 05:58:01;;;;;;;28.00;4.68;;;10.10;99.90;;;;;;4995060;28;20438;-62
2023/01/05 06:00:27;;;;;;;27.42;5.60;;;10.10;99.90;;;;;;4997221;28;20037;-63
2023/01/05 06:02:53;;;;;;;32.38;5.88;;;10.10;99.90;;;;;;4979669;28;20566;-64
2023/01/05 06:05:19;;;;;;;19.92;5.63;;;10.10;99.90;;;;;;4998165;28;20496;-62
2023/01/05 06:07:44;;;;;;;22.92;4.50;;;10.10;99.90;;;;;;4992817;28;20073;-61
2023/01/05 06:10:10;;;;;;;22.15;4.40;;;10.10;99.90;;;;;;4997970;28;20089;-62
2023/01/05 06:12:36;;;;;;;21.95;4.35;;;10.10;99.90;;;;;;5000898;28;20041;-63
2023/01/05 06:15:02;;;;;;;26.42;4.25;;;10.10;99.90;;;;;;5021573;28;20477;-62
2023/01/05 06:17:28;;;;;;;26.20;4.85;;;10.10;99.90;;;;;;4993864;28;20074;-63
2023/01/05 06:19:54;;;;;;;23.33;4.25;;;10.30;99.90;;;;;;5006882;28;20084;-63
2023/01/05 06:22:19;;;;;;;26.60;4.63;;;10.00;99.90;;;;;;4998147;28;20053;-63
2023/01/05 06:24:45;;;;;;;35.22;5.10;;;10.00;99.90;;;;;;5003089;28;20040;-63
2023/01/05 06:27:11;;;;;;;22.40;4.18;;;10.00;99.90;;;;;;5004818;28;20049;-63
2023/01/05 06:29:39;;;;;;;25.52;4.97;;;10.00;99.90;;;;;;5021782;28;20095;-63
2023/01/05 06:32:05;;;;;;;31.08;5.80;;;10.00;99.90;;;;;;4994116;28;20040;-64
2023/01/05 06:34:31;;;;;;;22.85;4.68;;;10.00;99.90;;;;;;4992610;28;20641;-62
2023/01/05 06:36:59;;;;;;;30.23;5.72;;;10.00;99.90;;;;;;5007872;28;20069;-62
2023/01/05 06:39:25;;;;;;;22.38;5.30;;;10.00;99.90;;;;;;5001250;28;20043;-61
2023/01/05 06:41:50;;;;;;;21.27;3.83;;;10.00;99.90;;;;;;4990622;28;20060;-63
2023/01/05 06:44:16;;;;;;;23.67;5.03;;;10.00;99.90;;;;;;4994023;28;20042;-63
2023/01/05 06:46:42;;;;;;;25.27;4.82;;;10.00;99.90;;;;;;4995284;28;20066;-63
2023/01/05 06:49:11;;;;;;;23.58;4.55;;;10.00;99.90;;;;;;4975184;28;20589;-63
2023/01/05 06:51:39;;;;;;;22.02;4.43;;;10.00;99.90;;;;;;4984925;28;20045;-63
2023/01/05 06:54:05;;;;;;;18.73;3.58;;;10.00;99.90;;;;;;4990132;28;20409;-62
2023/01/05 06:56:31;;;;;;;22.73;6.22;;;10.00;99.90;;;;;;4981551;28;20046;-62
2023/01/05 06:58:57;;;;;;;26.50;4.50;;;10.00;99.90;;;;;;4969204;28;20069;-63
2023/01/05 07:01:22;;;;;;;18.73;4.47;;;9.90;99.90;;;;;;5008048;28;20049;-62
2023/01/05 07:03:48;;;;;;;32.25;5.22;;;9.90;99.90;;;;;;4981893;28;20049;-62
2023/01/05 07:06:15;;;;;;;25.48;4.80;;;9.90;99.90;;;;;;4991143;28;20169;-63
2023/01/05 07:08:40;;;;;;;27.60;4.47;;;9.90;99.90;;;;;;4991447;28;20634;-62
2023/01/05 07:11:06;;;;;;;23.65;3.92;;;9.90;99.90;;;;;;4993141;28;20046;-63
2023/01/05 07:13:32;;;;;;;25.33;5.57;;;9.90;99.90;;;;;;4971822;28;20041;-63
2023/01/05 07:15:57;;;;;;;25.67;4.70;;;9.90;99.90;;;;;;4982967;28;20464;-63
2023/01/05 07:18:26;;;;;;;23.88;4.20;;;9.90;99.90;;;;;;4990810;28;20492;-63
2023/01/05 07:20:51;;;;;;;30.08;4.88;;;9.80;99.90;;;;;;4997247;28;20030;-63
2023/01/05 07:23:18;;;;;;;17.60;4.03;;;9.80;99.90;;;;;;5001948;28;20115;-62
2023/01/05 07:25:44;;;;;;;20.77;4.97;;;9.70;99.90;;;;;;4995806;28;20194;-63
2023/01/05 07:28:13;;;;;;;26.73;4.28;;;9.80;99.90;;;;;;5001659;28;20627;-63
2023/01/05 07:30:38;;;;;;;24.27;3.72;;;9.70;99.90;;;;;;4995265;28;20041;-63
2023/01/05 07:33:04;;;;;;;29.65;4.35;;;9.70;99.90;;;;;;4977320;28;20038;-63
2023/01/05 07:35:31;;;;;;;26.75;4.32;;;9.70;99.90;;;;;;5002366;28;20033;-63
2023/01/05 07:37:57;;;;;;;22.00;3.78;;;9.70;99.90;;;;;;4995326;28;20069;-64
2023/01/05 07:40:27;;;;;;;25.98;5.03;;;9.70;99.90;;;;;;4981664;28;20437;-63
2023/01/05 07:42:53;;;;;;;17.75;4.05;;;9.70;99.90;;;;;;4965897;28;21638;-62
2023/01/05 07:45:19;;;;;;;26.70;5.35;;;9.70;99.90;;;;;;4994146;28;20125;-62
2023/01/05 07:47:45;;;;;;;25.15;4.25;;;9.70;99.90;;;;;;4995849;28;20093;-63
2023/01/05 07:50:12;;;;;;;21.85;4.38;;;9.70;99.90;;;;;;5011707;28;20038;-62
2023/01/05 07:52:38;;;;;;;25.50;4.22;;;9.80;99.90;;;;;;5001335;28;20096;-63
2023/01/05 07:55:05;;;;;;;31.95;4.65;;;9.80;99.90;;;;;;4996746;28;20069;-62
2023/01/05 07:57:31;;;;;;;21.50;5.05;;;9.80;99.90;;;;;;5015005;28;20245;-63
2023/01/05 07:59:56;;;;;;;25.20;5.10;;;9.80;99.90;;;;;;5000620;28;20064;-64
2023/01/05 08:02:22;;;;;;;22.30;4.38;;;9.80;99.90;;;;;;4968933;28;20040;-63
2023/01/05 08:04:48;;;;;;;22.92;4.53;;;9.80;99.90;;;;;;5008973;28;20515;-62
2023/01/05 08:07:14;;;;;;;22.73;3.92;;;9.80;99.90;;;;;;4994418;28;20045;-63
2023/01/05 08:12:26;;;;;;;20.88;4.10;;;9.80;99.90;;;;;;5017362;28;20046;-63
2023/01/05 08:14:54;;;;;;;18.65;3.20;;;9.80;99.90;;;;;;5002416;28;20449;-64
2023/01/05 08:17:20;;;;;;;25.52;4.40;;;9.80;99.90;;;;;;4992277;28;20559;-63
2023/01/05 08:19:46;;;;;;;26.15;4.30;;;9.80;99.90;;;;;;4985018;28;20042;-63
2023/01/05 08:22:12;;;;;;;21.17;4.82;;;9.80;99.90;;;;;;4996301;28;20038;-63
2023/01/05 08:24:37;;;;;;;28.83;5.15;;;9.90;99.90;;;;;;5008617;28;20501;-64
2023/01/05 08:27:03;;;;;;;17.90;3.88;;;9.90;99.90;;;;;;4998879;28;20041;-63
2023/01/05 08:29:29;;;;;;;29.13;4.50;;;9.90;99.90;;;;;;5001475;28;20084;-63
2023/01/05 08:31:55;;;;;;;25.63;6.28;;;9.90;99.90;;;;;;5013699;28;20050;-63
2023/01/05 08:34:21;;;;;;;20.83;4.30;;;9.90;99.90;;;;;;4997236;28;20044;-64
2023/01/05 08:36:47;;;;;;;25.77;4.97;;;9.90;99.90;;;;;;5000000;28;20050;-64
2023/01/05 08:39:13;;;;;;;30.98;4.82;;;9.90;99.90;;;;;;4999159;28;20103;-64
2023/01/05 08:41:39;;;;;;;24.75;4.70;;;9.90;99.90;;;;;;4997964;28;20125;-63
2023/01/05 08:44:10;;;;;;;31.73;5.47;;;9.90;99.90;;;;;;4998237;28;20131;-64
2023/01/05 08:46:36;;;;;;;20.25;4.82;;;9.90;99.90;;;;;;5000362;28;20577;-62
2023/01/05 08:49:06;;;;;;;32.72;6.07;;;9.90;99.90;;;;;;5002435;28;20120;-63
2023/01/05 08:51:34;;;;;;;26.70;4.53;;;9.90;99.90;;;;;;4993467;28;21467;-63
2023/01/05 08:54:00;;;;;;;27.25;5.05;;;9.90;99.90;;;;;;4999536;28;20092;-63
2023/01/05 08:56:27;;;;;;;27.50;5.32;;;9.90;99.90;;;;;;4997234;28;20497;-63
2023/01/05 08:58:57;;;;;;;22.33;4.20;;;9.90;99.90;;;;;;4994028;28;20038;-63
2023/01/05 09:01:24;;;;;;;21.17;4.18;;;9.90;99.90;;;;;;4982263;28;20042;-63
2023/01/05 09:03:50;;;;;;;26.90;4.95;;;9.90;99.90;;;;;;4981976;28;20045;-64
2023/01/05 09:06:16;;;;;;;28.95;5.32;;;9.90;99.90;;;;;;5016041;28;20576;-64
2023/01/05 09:08:43;;;;;;;26.33;3.95;;;9.90;99.90;;;;;;5000137;28;20137;-63
2023/01/05 09:11:10;;;;;;;28.40;4.53;;;9.90;99.90;;;;;;5001733;28;20058;-62
2023/01/05 09:13:36;;;;;;;29.65;5.25;;;9.90;99.90;;;;;;4992351;28;20038;-65
2023/01/05 09:16:13;;;;;;;19.00;3.65;;;10.00;99.90;;;;;;4984820;28;20674;-64
2023/01/05 09:18:40;;;;;;;22.52;4.55;;;9.90;99.90;;;;;;4998299;28;20489;-64
2023/01/05 09:21:07;;;;;;;28.98;4.30;;;9.90;99.90;;;;;;5003773;28;20468;-64
2023/01/05 09:23:34;;;;;;;24.83;4.97;;;9.90;99.90;;;;;;5005804;28;20057;-63
2023/01/05 09:26:02;;;;;;;35.45;5.40;;;9.90;99.90;;;;;;4993898;28;20050;-64
2023/01/05 09:28:27;;;;;;;21.52;5.18;;;10.00;99.90;;;;;;5004829;28;20046;-64
2023/01/05 09:30:53;;;;;;;23.40;4.55;;;9.90;99.90;;;;;;4952022;28;20092;-64
2023/01/05 09:33:19;;;;;;;24.08;5.45;;;9.90;99.90;;;;;;4993731;28;20768;-65
2023/01/05 09:35:53;;;;;;;21.75;3.70;;;9.90;99.90;;;;;;4990365;28;20053;-64
2023/01/05 09:38:19;;;;;;;23.85;4.30;;;10.00;99.90;;;;;;4981194;28;20128;-64
2023/01/05 09:40:45;;;;;;;30.77;5.93;;;10.00;99.90;;;;;;4981869;28;20192;-64
2023/01/05 09:43:28;;;;;;;29.13;5.03;;;10.00;99.90;;;;;;4996223;28;20050;-64
2023/01/05 09:45:58;;;;;;;24.90;4.88;;;10.00;99.90;;;;;;4994801;28;20038;-63
2023/01/05 09:48:24;;;;;;;29.45;5.65;;;10.00;99.90;;;;;;4999281;28;20044;-63
2023/01/05 09:50:51;;;;;;;24.70;4.00;;;10.00;99.90;;;;;;4983757;28;20068;-63
2023/01/05 09:53:23;;;;;;;28.27;5.03;;;10.00;99.90;;;;;;4993713;28;20756;-64
2023/01/05 09:55:53;;;;;;;25.63;4.45;;;10.10;99.90;;;;;;4988933;28;20049;-64
2023/01/05 09:58:24;;;;;;;29.33;4.68;;;10.10;99.90;;;;;;5003712;28;20044;-64
2023/01/05 10:01:14;;;;;;;22.33;4.95;;;10.10;99.90;;;;;;5000702;28;20045;-63
2023/01/05 10:03:57;;;;;;;18.50;4.28;;;10.20;99.90;;;;;;5020926;28;20145;-64
2023/01/05 10:06:28;;;;;;;31.17;4.90;;;10.10;99.90;;;;;;5005620;28;20087;-64
2023/01/05 10:08:55;;;;;;;22.92;3.95;;;10.10;99.90;;;;;;5017095;28;20495;-63
2023/01/05 10:14:38;;;;;;;28.35;4.82;;;10.20;99.90;;;;;;4991937;28;20042;-64
2023/01/05 10:17:13;;;;;;;22.13;4.05;;;10.20;99.90;;;;;;4983518;28;20141;-64
2023/01/05 10:19:38;;;;;;;24.95;5.25;;;10.20;99.90;;;;;;4998164;28;20057;-64
2023/01/05 10:22:39;;;;;;;20.10;5.13;;;10.30;99.90;;;;;;5011845;28;20173;-64
2023/01/05 10:25:28;;;;;;;30.42;5.10;;;10.30;99.90;;;;;;5009644;28;20050;-64
2023/01/05 10:27:57;;;;;;;30.75;4.95;;;10.20;99.90;;;;;;5016225;28;20033;-63
2023/01/05 10:30:36;;;;;;;20.20;4.75;;;10.20;99.90;;;;;;4997950;28;20044;-63
2023/01/05 10:33:24;;;;;;;23.65;3.63;;;10.20;99.90;;;;;;5006498;28;20049;-63
2023/01/05 10:36:07;;;;;;;19.30;4.00;;;10.30;99.90;;;;;;5005406;28;20052;-63
2023/01/05 10:38:57;;;;;;;25.50;4.70;;;10.30;99.90;;;;;;5017798;28;20445;-63
2023/01/05 10:41:38;;;;;;;21.05;3.78;;;10.30;99.90;;;;;;4987341;28;20492;-64
2023/01/05 10:44:27;;;;;;;16.95;2.95;;;10.30;99.90;;;;;;5004184;28;20576;-64
2023/01/05 10:46:53;;;;;;;21.92;4.45;;;10.30;99.90;;;;;;4998668;28;20038;-63
2023/01/05 10:49:24;;;;;;;15.18;3.00;;;10.30;99.90;;;;;;4983602;28;20392;-62
2023/01/05 10:51:56;;;;;;;19.83;3.50;;;10.30;99.90;;;;;;5002401;28;20538;-63
2023/01/05 10:54:52;;;;;;;21.63;3.70;;;10.40;99.90;;;;;;5003486;28;20030;-62
2023/01/05 10:57:32;;;;;;;13.68;3.20;;;10.40;99.90;;;;;;5016915;28;20049;-63
2023/01/05 11:00:00;;;;;;;14.60;3.75;;;10.40;99.90;;;;;;4986091;28;20042;-63
2023/01/05 11:02:34;;;;;;;17.98;3.53;;;10.40;99.90;;;;;;5010256;28;20499;-63
2023/01/05 11:05:09;;;;;;;23.92;4.47;;;10.40;99.90;;;;;;5021719;23;20126;-62
2023/01/05 11:07:57;;;;;;;19.50;4.38;;;10.50;99.90;;;;;;4995385;28;20038;-62
2023/01/05 11:10:35;;;;;;;19.70;3.65;;;10.50;99.90;;;;;;4983161;28;20104;-62
2023/01/05 11:13:16;;;;;;;23.55;4.68;;;10.50;99.90;;;;;;5000906;28;20512;-61
2023/01/05 11:15:47;;;;;;;26.98;3.80;;;10.50;99.90;;;;;;4963219;28;20128;-61
2023/01/05 11:18:40;;;;;;;21.70;4.60;;;10.50;99.90;;;;;;4976822;28;20038;-62
2023/01/05 11:21:17;;;;;;;21.75;3.78;;;10.50;99.90;;;;;;4971158;28;20064;-63
2023/01/05 11:23:54;;;;;;;18.67;3.40;;;10.50;99.90;;;;;;4978776;28;20053;-62
2023/01/05 11:26:24;;;;;;;23.38;3.70;;;10.60;99.90;;;;;;4998837;28;20506;-63
2023/01/05 11:29:08;;;;;;;23.63;3.72;;;10.70;99.90;;;;;;5001918;28;20073;-61
2023/01/05 11:31:42;;;;;;;19.92;3.90;;;10.70;99.90;;;;;;5001881;28;20183;-62
2023/01/05 11:34:23;;;;;;;20.85;3.95;;;10.70;99.90;;;;;;4999248;28;20037;-62
2023/01/05 11:36:58;;;;;;;19.38;3.47;;;10.70;99.90;;;;;;4969072;28;20488;-63
2023/01/05 11:39:39;;;;;;;28.92;5.80;;;10.60;99.90;;;;;;5003212;28;20041;-64
2023/01/05 11:42:26;;;;;;;21.00;3.83;;;10.50;99.90;;;;;;4998521;28;20188;-63
2023/01/05 11:45:05;;;;;;;28.45;4.50;;;10.50;99.90;;;;;;4971967;28;20078;-64
2023/01/05 11:47:33;;;;;;;19.95;3.40;;;10.60;99.90;;;;;;4995575;28;20574;-62
2023/01/05 11:50:04;;;;;;;31.92;4.43;;;10.60;99.90;;;;;;4997437;28;20054;-64
2023/01/05 11:52:40;;;;;;;29.02;6.22;;;10.60;99.90;;;;;;4998115;28;20046;-62
2023/01/05 11:55:26;;;;;;;29.58;4.32;;;10.60;99.90;;;;;;5001361;28;20041;-64
2023/01/05 11:57:53;;;;;;;19.42;3.72;;;10.60;99.90;;;;;;4993625;28;20046;-63
2023/01/05 12:00:30;;;;;;;30.45;4.60;;;10.60;99.90;;;;;;4974420;28;20077;-64
2023/01/05 12:03:14;;;;;;;19.70;3.58;;;10.60;99.90;;;;;;4994863;28;20046;-63
2023/01/05 12:05:45;;;;;;;21.80;4.43;;;10.60;99.90;;;;;;4984468;28;20536;-62
2023/01/05 12:08:16;;;;;;;16.35;3.78;;;10.60;99.90;;;;;;4982112;28;20041;-64
2023/01/05 12:11:06;;;;;;;17.77;3.55;;;10.60;99.90;;;;;;4988159;28;20555;-61
2023/01/05 12:13:47;;;;;;;24.45;4.32;;;10.60;99.90;;;;;;4983152;28;20085;-61
2023/01/05 12:16:25;;;;;;;19.05;3.70;;;10.60;99.90;;;;;;5003405;28;20050;-62
2023/01/05 12:19:35;;;;;;;19.60;3.42;;;10.60;99.90;;;;;;4976346;28;20045;-63
2023/01/05 12:22:06;;;;;;;17.95;4.15;;;10.60;99.90;;;;;;4948394;28;20053;-63
2023/01/05 12:24:56;;;;;;;19.98;4.93;;;10.60;99.90;;;;;;4982814;28;20046;-62
2023/01/05 12:27:47;;;;;;;25.85;3.97;;;10.60;99.90;;;;;;5002008;28;20049;-62
2023/01/05 12:30:31;;;;;;;24.70;4.90;;;10.60;99.90;;;;;;4998855;28;20048;-63
2023/01/05 12:33:33;;;;;;;25.92;4.75;;;10.60;99.90;;;;;;4996478;28;20405;-63
2023/01/05 12:36:02;;;;;;;22.65;4.47;;;10.60;99.90;;;;;;4995755;28;20084;-63
2023/01/05 12:38:51;;;;;;;20.02;4.10;;;10.60;99.90;;;;;;4996674;28;20040;-64
2023/01/05 12:41:44;;;;;;;23.85;4.18;;;10.60;99.90;;;;;;5000215;28;20084;-63
2023/01/05 12:44:36;;;;;;;19.85;3.58;;;10.60;99.90;;;;;;4979942;28;20083;-63
2023/01/05 12:47:26;;;;;;;19.83;3.88;;;10.50;99.90;;;;;;4967508;28;20489;-62
2023/01/05 12:50:06;;;;;;;24.63;4.32;;;10.50;99.90;;;;;;4996552;28;20125;-63
2023/01/05 12:52:46;;;;;;;28.55;4.75;;;10.50;99.90;;;;;;4975082;28;20046;-65
2023/01/05 12:55:16;;;;;;;23.55;3.90;;;10.60;99.90;;;;;;4997467;28;20568;-65
2023/01/05 12:57:56;;;;;;;14.43;3.63;;;10.60;99.90;;;;;;4985730;28;20065;-62
2023/01/05 13:00:24;;;;;;;15.60;4.68;;;10.60;99.90;;;;;;4981704;28;20540;-62
2023/01/05 13:02:56;;;;;;;16.65;4.90;;;10.60;99.90;;;;;;4984521;28;20065;-65
2023/01/05 13:05:47;;;;;;;32.00;5.50;;;10.60;99.90;;;;;;5000057;28;20042;-62
2023/01/05 13:08:25;;;;;;;25.35;5.97;;;10.60;99.90;;;;;;4994799;28;20037;-63
2023/01/05 13:10:55;;;;;;;28.63;6.05;;;10.60;99.90;;;;;;4977744;28;20044;-63
2023/01/05 13:13:36;;;;;;;26.45;6.20;;;10.60;99.90;;;;;;4994980;28;20046;-64
2023/01/05 13:16:21;;;;;;;20.48;4.22;;;10.60;99.90;;;;;;4999419;28;20046;-62
2023/01/05 13:18:52;;;;;;;27.38;4.85;;;10.60;99.90;;;;;;4997858;28;20030;-64
2023/01/05 13:21:20;;;;;;;27.80;7.68;;;10.70;99.90;;;;;;4976496;28;20038;-62
2023/01/05 13:24:05;;;;;;;26.73;4.80;;;10.70;99.90;;;;;;4978017;28;20033;-63
2023/01/05 13:26:37;;;;;;;30.08;5.40;;;10.60;99.90;;;;;;4991007;28;20038;-63
2023/01/05 13:29:03;;;;;;;33.78;7.25;;;10.60;99.90;;;;;;4981066;28;20052;-64
2023/01/05 13:31:50;;;;;;;26.27;5.18;;;10.60;99.90;;;;;;4992630;28;20048;-64
2023/01/05 13:34:41;;;;;;;22.60;5.95;;;10.60;99.90;;;;;;4969945;28;20133;-62
2023/01/05 13:37:44;;;;;;;23.67;5.93;;;10.70;99.90;;;;;;4991059;28;20037;-64
2023/01/05 13:40:20;;;;;;;31.73;7.28;;;10.60;99.90;;;;;;4981049;28;20046;-64